Time;durP1;ratioP1;P1;durP2;ratioP2;P2;SDS_P1;SDS_P2;PMS_P1;PMS_P2;Temp;Humidity;BMP_temperature;BMP_pressure;BME280_temperature;BME280_humidity;BME280_pressure;Samples;Min_cycle;Max_cycle;Signal;HPM_P1;HPM_P2
2023/03/17 00:01:10;;;;;;;4.60;2.30;;;6.60;99.90;;;;;;5049976;28;20041;-48
2023/03/17 00:03:39;;;;;;;3.35;2.60;;;6.60;99.90;;;;;;5050732;28;20271;-47
2023/03/17 00:06:14;;;;;;;9.82;2.78;;;6.50;99.90;;;;;;5050321;28;20068;-47
2023/03/17 00:08:40;;;;;;;3.97;2.60;;;6.50;99.90;;;;;;5049374;28;20041;-46
2023/03/17 00:11:12;;;;;;;3.10;2.55;;;6.50;99.90;;;;;;5049119;28;20103;-47
2023/03/17 00:13:38;;;;;;;3.28;2.38;;;6.50;99.90;;;;;;5050562;28;20429;-47
2023/03/17 00:16:06;;;;;;;3.15;2.42;;;6.50;99.90;;;;;;5050716;28;20094;-47
2023/03/17 00:18:34;;;;;;;8.65;2.78;;;6.50;99.90;;;;;;5046299;28;20517;-48
2023/03/17 00:20:59;;;;;;;5.03;2.20;;;6.60;99.90;;;;;;5045613;28;20041;-47
2023/03/17 00:23:25;;;;;;;5.78;2.25;;;6.60;99.90;;;;;;5034261;28;20053;-47
2023/03/17 00:25:52;;;;;;;5.70;2.77;;;6.60;99.90;;;;;;5041227;28;20029;-47
2023/03/17 00:28:21;;;;;;;6.88;2.33;;;6.60;99.90;;;;;;5044294;28;20360;-47
2023/03/17 00:30:51;;;;;;;4.20;2.22;;;6.70;99.90;;;;;;5045831;28;20406;-46
2023/03/17 00:33:23;;;;;;;4.20;2.65;;;6.70;99.90;;;;;;5048709;28;20037;-48
2023/03/17 00:35:49;;;;;;;7.60;2.92;;;6.70;99.90;;;;;;5050448;28;20039;-48
2023/03/17 00:38:16;;;;;;;5.35;2.55;;;6.70;99.90;;;;;;5049266;28;20136;-47
2023/03/17 00:40:44;;;;;;;3.88;2.50;;;6.70;99.90;;;;;;5049906;28;20091;-47
2023/03/17 00:43:11;;;;;;;4.15;2.20;;;6.70;99.90;;;;;;5048609;28;20056;-46
2023/03/17 00:45:38;;;;;;;2.75;2.20;;;6.70;99.90;;;;;;5050304;28;20071;-47
2023/03/17 00:48:15;;;;;;;3.88;2.50;;;6.70;99.90;;;;;;5048624;28;20045;-47
2023/03/17 00:50:41;;;;;;;3.60;2.80;;;6.80;99.90;;;;;;5047967;28;20041;-46
2023/03/17 00:53:14;;;;;;;2.35;2.15;;;6.80;99.90;;;;;;5049585;28;20572;-46
2023/03/17 00:55:41;;;;;;;5.95;2.40;;;6.80;99.90;;;;;;5049842;28;20041;-47
2023/03/17 00:58:14;;;;;;;4.97;2.60;;;6.90;99.90;;;;;;5048279;28;20045;-48
2023/03/17 01:00:39;;;;;;;5.25;1.90;;;7.00;99.90;;;;;;5047982;28;20041;-47
2023/03/17 01:03:10;;;;;;;7.90;2.70;;;7.00;99.90;;;;;;5049499;28;20118;-48
2023/03/17 01:05:37;;;;;;;3.22;2.60;;;7.10;99.90;;;;;;5050138;28;20044;-47
2023/03/17 01:08:03;;;;;;;4.85;2.55;;;7.10;99.90;;;;;;5047140;28;20037;-49
2023/03/17 01:10:29;;;;;;;4.88;2.50;;;7.10;99.90;;;;;;5041388;28;20045;-47
2023/03/17 01:12:56;;;;;;;6.35;2.50;;;7.10;99.90;;;;;;5027467;28;20041;-47
2023/03/17 01:15:24;;;;;;;8.30;3.22;;;7.00;99.90;;;;;;5029844;28;20033;-46
2023/03/17 01:17:50;;;;;;;3.08;2.28;;;6.90;99.90;;;;;;5034855;28;20104;-46
2023/03/17 01:20:23;;;;;;;2.72;2.53;;;6.80;99.90;;;;;;5048037;28;20042;-47
2023/03/17 01:22:49;;;;;;;4.50;2.55;;;6.70;99.90;;;;;;5049135;28;20375;-48
2023/03/17 01:25:16;;;;;;;3.70;3.00;;;6.70;99.90;;;;;;5049117;28;20037;-46
2023/03/17 01:27:44;;;;;;;3.70;2.47;;;6.60;99.90;;;;;;5045725;28;20152;-48
2023/03/17 01:30:32;;;;;;;2.30;2.10;;;6.60;99.90;;;;;;5035263;28;20056;-47
2023/03/17 01:32:58;;;;;;;3.58;2.75;;;6.50;99.90;;;;;;5020551;28;20045;-48
2023/03/17 01:35:25;;;;;;;3.78;2.65;;;6.50;99.90;;;;;;5029054;28;20037;-47
2023/03/17 01:37:51;;;;;;;3.85;3.30;;;6.50;99.90;;;;;;5035297;28;20410;-47
2023/03/17 01:40:21;;;;;;;4.97;2.85;;;6.40;99.90;;;;;;5048968;28;20052;-47
2023/03/17 01:42:52;;;;;;;4.32;3.35;;;6.40;99.90;;;;;;5061139;28;20045;-47
2023/03/17 01:45:55;;;;;;;6.13;3.13;;;6.40;99.90;;;;;;5051778;28;20402;-45
2023/03/17 01:48:22;;;;;;;3.85;3.42;;;6.30;99.90;;;;;;5045929;28;20045;-47
2023/03/17 01:50:48;;;;;;;5.22;3.50;;;6.30;99.90;;;;;;5033094;28;20039;-48
2023/03/17 01:53:14;;;;;;;5.07;2.75;;;6.30;99.90;;;;;;5034560;28;20041;-48
2023/03/17 01:55:42;;;;;;;5.18;2.78;;;6.20;99.90;;;;;;5033816;28;20091;-46
2023/03/17 01:58:08;;;;;;;4.40;3.35;;;6.30;99.90;;;;;;5032527;28;20546;-47
2023/03/17 02:00:34;;;;;;;4.18;3.80;;;6.20;99.90;;;;;;5034229;28;20060;-47
2023/03/17 02:02:59;;;;;;;2.70;2.50;;;6.20;99.90;;;;;;5033945;28;20483;-46
2023/03/17 02:05:30;;;;;;;3.83;3.37;;;6.20;99.90;;;;;;5033779;28;20125;-47
2023/03/17 02:07:56;;;;;;;4.85;3.35;;;6.20;99.90;;;;;;5033051;28;20167;-46
2023/03/17 02:10:25;;;;;;;3.80;3.03;;;6.20;99.90;;;;;;5053151;28;20101;-47
2023/03/17 02:12:54;;;;;;;6.50;3.20;;;6.30;99.90;;;;;;5051042;28;20044;-47
2023/03/17 02:15:20;;;;;;;4.07;3.75;;;6.20;99.90;;;;;;5052980;28;20041;-46
2023/03/17 02:17:46;;;;;;;3.72;3.42;;;6.20;99.90;;;;;;5052196;28;20041;-46
2023/03/17 02:20:14;;;;;;;7.10;3.17;;;6.20;99.90;;;;;;5032915;28;20046;-48
2023/03/17 02:22:42;;;;;;;4.85;3.80;;;6.10;99.90;;;;;;5039797;28;20048;-46
2023/03/17 02:25:08;;;;;;;6.50;4.22;;;6.10;99.90;;;;;;5050621;28;20055;-46
2023/03/17 02:27:41;;;;;;;3.60;3.30;;;6.10;99.90;;;;;;5050660;28;20045;-47
2023/03/17 02:30:09;;;;;;;4.97;3.53;;;6.10;99.90;;;;;;5051807;28;20155;-46
2023/03/17 02:32:35;;;;;;;5.13;3.58;;;6.10;99.90;;;;;;5050455;28;20041;-48
2023/03/17 02:35:01;;;;;;;5.13;3.40;;;6.10;99.90;;;;;;5052112;28;20482;-47
2023/03/17 02:37:27;;;;;;;4.57;3.97;;;6.00;99.90;;;;;;5051774;28;20055;-47
2023/03/17 02:39:52;;;;;;;4.40;3.80;;;6.00;99.90;;;;;;5052188;28;20032;-47
2023/03/17 02:42:18;;;;;;;4.97;3.13;;;6.00;99.90;;;;;;5052421;28;20094;-46
2023/03/17 02:44:44;;;;;;;3.83;3.45;;;6.00;99.90;;;;;;5052272;28;20502;-47
2023/03/17 02:47:10;;;;;;;6.23;4.37;;;6.00;99.90;;;;;;5052432;28;20044;-46
2023/03/17 02:49:37;;;;;;;6.07;3.83;;;6.00;99.90;;;;;;5051311;28;20044;-48
2023/03/17 02:52:03;;;;;;;4.13;3.65;;;6.00;99.90;;;;;;5051968;28;20328;-47
2023/03/17 02:54:29;;;;;;;5.47;3.72;;;6.00;99.90;;;;;;5051086;28;20228;-46
2023/03/17 02:56:55;;;;;;;5.72;3.55;;;5.90;99.90;;;;;;5045964;28;20033;-47
2023/03/17 02:59:21;;;;;;;7.07;3.93;;;5.90;99.90;;;;;;5040071;28;20340;-48
2023/03/17 03:01:48;;;;;;;5.60;2.73;;;5.80;99.90;;;;;;5036469;28;20033;-46
2023/03/17 03:04:13;;;;;;;8.30;2.75;;;5.80;99.90;;;;;;5048491;28;20282;-47
2023/03/17 03:06:41;;;;;;;4.00;3.05;;;5.90;99.90;;;;;;5050509;28;20120;-48
2023/03/17 03:09:07;;;;;;;8.55;3.88;;;6.00;99.90;;;;;;5048875;28;20048;-47
2023/03/17 03:11:33;;;;;;;4.20;3.80;;;6.00;99.90;;;;;;5039761;28;20087;-46
2023/03/17 03:13:59;;;;;;;3.47;2.92;;;6.00;99.90;;;;;;5049997;28;20516;-47
2023/03/17 03:16:25;;;;;;;3.40;2.80;;;6.00;99.90;;;;;;5033521;28;20451;-46
2023/03/17 03:18:50;;;;;;;5.35;3.45;;;6.10;99.90;;;;;;5030987;28;20033;-48
2023/03/17 03:21:16;;;;;;;3.73;3.43;;;6.20;99.90;;;;;;5031548;28;20060;-48
2023/03/17 03:23:42;;;;;;;2.67;2.47;;;6.20;99.90;;;;;;5033313;28;20048;-46
2023/03/17 03:26:08;;;;;;;5.75;3.35;;;6.30;99.90;;;;;;5049850;28;20048;-47
2023/03/17 03:28:33;;;;;;;8.30;3.35;;;6.30;99.90;;;;;;5050852;28;20048;-47
2023/03/17 03:30:59;;;;;;;7.50;2.93;;;6.40;99.90;;;;;;5051481;28;20059;-48
2023/03/17 03:33:25;;;;;;;3.63;2.87;;;6.50;99.90;;;;;;5051543;28;20090;-46
2023/03/17 03:35:50;;;;;;;3.95;3.05;;;6.50;99.90;;;;;;5049793;28;20104;-46
2023/03/17 03:38:16;;;;;;;3.23;2.47;;;6.60;99.90;;;;;;5050868;28;20197;-47
2023/03/17 03:40:41;;;;;;;4.37;2.50;;;6.60;99.90;;;;;;5049836;28;20029;-46
2023/03/17 03:43:07;;;;;;;4.13;2.83;;;6.60;99.90;;;;;;5051370;28;20079;-47
2023/03/17 03:45:33;;;;;;;3.28;2.88;;;6.70;99.90;;;;;;5049172;28;20485;-47
2023/03/17 03:47:59;;;;;;;3.50;2.27;;;6.70;99.90;;;;;;5051716;28;20036;-48
2023/03/17 03:50:24;;;;;;;4.55;2.88;;;6.80;99.90;;;;;;5051138;28;20076;-48
2023/03/17 03:52:50;;;;;;;3.73;2.93;;;6.90;99.90;;;;;;5050198;28;20575;-47
2023/03/17 03:55:16;;;;;;;5.33;2.23;;;6.90;99.90;;;;;;5044725;28;20113;-46
2023/03/17 03:57:42;;;;;;;5.77;2.43;;;6.80;99.90;;;;;;5029325;28;20338;-46
2023/03/17 04:00:09;;;;;;;4.70;2.60;;;6.80;99.90;;;;;;5031157;28;20664;-46
2023/03/17 04:02:35;;;;;;;2.25;2.05;;;6.90;99.90;;;;;;5029422;28;20077;-47
2023/03/17 04:05:01;;;;;;;2.27;1.93;;;6.90;99.90;;;;;;5032072;28;20140;-47
2023/03/17 04:07:26;;;;;;;3.40;2.17;;;6.90;99.90;;;;;;5028197;28;20072;-46
2023/03/17 04:09:52;;;;;;;2.90;2.07;;;6.90;99.90;;;;;;5029875;28;20330;-48
2023/03/17 04:12:18;;;;;;;7.40;2.20;;;6.90;99.90;;;;;;5048013;28;20299;-48
2023/03/17 04:14:43;;;;;;;8.57;2.85;;;6.90;99.90;;;;;;5041203;28;20025;-47
2023/03/17 04:17:13;;;;;;;4.77;2.27;;;6.80;99.90;;;;;;5046051;28;20041;-46
2023/03/17 04:19:39;;;;;;;5.07;2.83;;;6.80;99.90;;;;;;5038604;28;20463;-47
2023/03/17 04:22:07;;;;;;;5.38;2.50;;;6.80;99.90;;;;;;5050117;28;20108;-47
2023/03/17 04:24:34;;;;;;;3.80;2.30;;;6.80;99.90;;;;;;5050459;28;20095;-47
2023/03/17 04:27:01;;;;;;;2.85;2.42;;;6.70;99.90;;;;;;5050264;28;20588;-47
2023/03/17 04:29:26;;;;;;;3.03;2.47;;;6.80;99.90;;;;;;5049302;28;20498;-47
2023/03/17 04:31:52;;;;;;;5.57;2.73;;;6.70;99.90;;;;;;5034655;28;20120;-47
2023/03/17 04:34:18;;;;;;;3.30;1.93;;;6.70;99.90;;;;;;5030540;28;20100;-46
2023/03/17 04:36:46;;;;;;;3.45;2.63;;;6.80;99.90;;;;;;5030597;28;20049;-47
2023/03/17 04:39:12;;;;;;;4.15;2.33;;;6.80;99.90;;;;;;5028597;28;20128;-47
2023/03/17 04:41:38;;;;;;;5.85;3.05;;;6.80;99.90;;;;;;5029765;28;20050;-48
2023/03/17 04:44:04;;;;;;;3.30;2.77;;;6.80;99.90;;;;;;5030100;28;20029;-47
2023/03/17 04:46:30;;;;;;;;;;;6.80;99.90;;;;;;5029432;28;20293;-47
2023/03/17 04:48:56;;;;;;;10.77;3.28;;;6.80;99.90;;;;;;5029616;28;19916;-47
2023/03/17 04:51:22;;;;;;;2.43;2.10;;;6.80;99.90;;;;;;5029407;28;20482;-48
2023/03/17 04:53:47;;;;;;;2.35;1.73;;;6.70;99.90;;;;;;5029795;28;20295;-47
2023/03/17 04:56:13;;;;;;;5.20;2.42;;;6.80;99.90;;;;;;5029007;28;20098;-48
2023/03/17 04:58:39;;;;;;;3.30;2.20;;;6.70;99.90;;;;;;5029667;28;20041;-47
2023/03/17 05:01:06;;;;;;;4.22;3.03;;;6.70;99.90;;;;;;5028320;28;20491;-48
2023/03/17 05:03:32;;;;;;;5.57;2.20;;;6.60;99.90;;;;;;5029797;28;20042;-47
2023/03/17 05:05:58;;;;;;;4.30;2.10;;;6.60;99.90;;;;;;5028465;28;20392;-46
2023/03/17 05:08:26;;;;;;;4.05;2.33;;;6.60;99.90;;;;;;5027520;28;20053;-48
2023/03/17 05:10:51;;;;;;;4.40;2.50;;;6.60;99.90;;;;;;5030842;28;20049;-47
2023/03/17 05:13:17;;;;;;;2.03;1.60;;;6.60;99.90;;;;;;5029448;28;20455;-46
2023/03/17 05:15:47;;;;;;;5.78;2.40;;;6.60;99.90;;;;;;5040238;28;20485;-47
2023/03/17 05:18:13;;;;;;;3.47;1.95;;;6.70;99.90;;;;;;5048308;28;20048;-47
2023/03/17 05:20:39;;;;;;;;;;;6.70;99.90;;;;;;5041443;28;20044;-47
2023/03/17 05:23:05;;;;;;;4.00;2.50;;;6.80;99.90;;;;;;5045022;28;19921;-46
2023/03/17 05:25:30;;;;;;;2.43;1.37;;;6.80;99.90;;;;;;5047821;28;20402;-47
2023/03/17 05:27:57;;;;;;;1.83;1.60;;;6.80;99.90;;;;;;5032611;28;20053;-48
2023/03/17 05:30:24;;;;;;;3.08;2.08;;;6.80;99.90;;;;;;5041868;28;20136;-48
2023/03/17 05:32:50;;;;;;;3.03;1.95;;;6.80;99.90;;;;;;5029827;28;20037;-47
2023/03/17 05:35:16;;;;;;;2.42;1.50;;;6.90;99.90;;;;;;5029271;28;20055;-47
2023/03/17 05:37:42;;;;;;;2.25;1.73;;;6.90;99.90;;;;;;5028501;28;20052;-47
2023/03/17 05:40:09;;;;;;;4.75;2.40;;;7.00;99.90;;;;;;5027904;28;20554;-47
2023/03/17 05:42:35;;;;;;;3.03;2.10;;;7.00;99.90;;;;;;5030228;28;20045;-48
2023/03/17 05:45:01;;;;;;;2.88;2.67;;;7.00;99.90;;;;;;5029208;28;20040;-47
2023/03/17 05:47:27;;;;;;;2.72;1.52;;;7.00;99.90;;;;;;5056676;28;20102;-46
2023/03/17 05:49:52;;;;;;;3.97;2.03;;;7.00;99.90;;;;;;5048665;28;20040;-47
2023/03/17 05:52:18;;;;;;;2.95;1.58;;;7.00;99.90;;;;;;5046568;28;20545;-47
2023/03/17 05:54:46;;;;;;;5.25;2.25;;;7.00;99.90;;;;;;5049215;28;20041;-48
2023/03/17 05:57:12;;;;;;;3.08;1.90;;;7.00;99.90;;;;;;5048746;28;20037;-49
2023/03/17 05:59:37;;;;;;;2.33;1.43;;;7.00;99.90;;;;;;5048411;28;20037;-48
2023/03/17 06:02:03;;;;;;;4.10;2.07;;;7.00;99.90;;;;;;5043902;28;20068;-47
2023/03/17 06:04:29;;;;;;;3.00;1.80;;;7.10;99.90;;;;;;5028954;28;20036;-47
2023/03/17 06:06:54;;;;;;;2.47;2.10;;;7.20;99.90;;;;;;5029181;28;20050;-48
2023/03/17 06:09:20;;;;;;;2.43;1.33;;;7.30;99.90;;;;;;5028363;28;20483;-47
2023/03/17 06:11:45;;;;;;;3.20;1.37;;;7.50;99.90;;;;;;5029040;28;20107;-46
2023/03/17 06:14:12;;;;;;;4.33;1.60;;;7.70;99.90;;;;;;5029740;28;20385;-48
2023/03/17 06:16:37;;;;;;;4.82;1.77;;;8.00;99.90;;;;;;5029377;28;20038;-48
2023/03/17 06:19:03;;;;;;;1.50;1.27;;;8.30;99.90;;;;;;5028197;28;20503;-48
2023/03/17 06:21:28;;;;;;;2.67;1.30;;;8.60;99.90;;;;;;5029104;28;20039;-48
2023/03/17 06:23:54;;;;;;;8.27;2.73;;;8.80;99.90;;;;;;5047352;28;20122;-46
2023/03/17 06:26:20;;;;;;;2.95;1.50;;;9.10;99.90;;;;;;5049391;28;20205;-48
2023/03/17 06:28:45;;;;;;;2.10;1.13;;;9.30;99.90;;;;;;5042394;28;20072;-47
2023/03/17 06:31:11;;;;;;;1.20;1.10;;;9.60;99.90;;;;;;5037417;28;20041;-47
2023/03/17 06:33:37;;;;;;;7.80;1.47;;;9.80;99.90;;;;;;5036402;28;20041;-47
2023/03/17 06:36:03;;;;;;;4.88;2.20;;;10.00;99.90;;;;;;5047554;28;20310;-48
2023/03/17 06:38:28;;;;;;;2.08;1.13;;;10.10;99.40;;;;;;5047537;28;20517;-48
2023/03/17 06:40:54;;;;;;;4.20;1.40;;;10.40;99.20;;;;;;5052222;28;20037;-48
2023/03/17 06:43:21;;;;;;;2.90;1.20;;;10.70;99.20;;;;;;5050604;28;20072;-47
2023/03/17 06:45:46;;;;;;;;;;;11.00;98.30;;;;;;5052721;28;20098;-46
2023/03/17 06:48:12;;;;;;;2.42;1.00;;;11.30;97.60;;;;;;5049973;28;20289;-48
2023/03/17 06:50:37;;;;;;;2.40;1.20;;;11.40;97.60;;;;;;5050906;28;20052;-48
2023/03/17 06:53:03;;;;;;;4.93;1.17;;;11.40;97.00;;;;;;5049215;28;20287;-47
2023/03/17 06:55:30;;;;;;;5.35;1.23;;;11.40;96.90;;;;;;5052251;28;20060;-48
2023/03/17 06:57:55;;;;;;;;;;;11.30;96.80;;;;;;5051541;28;20033;-47
2023/03/17 07:00:21;;;;;;;3.15;1.00;;;10.90;96.30;;;;;;5039288;28;19924;-47
2023/03/17 07:02:48;;;;;;;3.65;1.42;;;10.70;97.30;;;;;;5045185;28;20120;-48
2023/03/17 07:05:14;;;;;;;2.38;1.52;;;10.50;96.60;;;;;;5050894;28;20083;-47
2023/03/17 07:07:40;;;;;;;4.47;1.08;;;10.40;97.00;;;;;;5050660;28;20334;-47
2023/03/17 07:10:09;;;;;;;2.75;1.17;;;10.20;97.80;;;;;;5043159;28;20502;-46
2023/03/17 07:12:35;;;;;;;2.17;1.20;;;10.10;97.90;;;;;;5047472;28;20092;-47
2023/03/17 07:15:02;;;;;;;4.15;1.42;;;10.10;97.80;;;;;;5050818;28;20060;-48
2023/03/17 07:17:28;;;;;;;;;;;10.10;98.30;;;;;;5033829;28;20670;-49
2023/03/17 07:19:54;;;;;;;3.63;1.15;;;10.10;98.60;;;;;;5045394;28;19920;-48
2023/03/17 07:22:20;;;;;;;2.17;1.10;;;10.10;98.90;;;;;;5034054;28;20033;-47
2023/03/17 07:24:47;;;;;;;1.55;1.05;;;10.20;99.00;;;;;;5032980;28;20049;-47
2023/03/17 07:27:16;;;;;;;3.75;1.20;;;10.20;99.10;;;;;;5031150;28;20048;-47
2023/03/17 07:29:42;;;;;;;3.95;1.27;;;10.20;98.60;;;;;;5034978;28;20025;-48
2023/03/17 07:32:08;;;;;;;3.27;1.30;;;10.20;98.80;;;;;;5030726;28;20044;-49
2023/03/17 07:34:35;;;;;;;3.10;1.73;;;10.20;98.60;;;;;;5046218;28;20315;-48
2023/03/17 07:37:01;;;;;;;2.22;1.38;;;10.20;99.10;;;;;;5048385;28;20033;-48
2023/03/17 07:39:27;;;;;;;;;;;10.10;98.70;;;;;;5032161;28;20041;-47
2023/03/17 07:41:54;;;;;;;3.00;1.58;;;10.10;98.20;;;;;;5034447;28;19958;-48
2023/03/17 07:44:21;;;;;;;3.22;1.95;;;10.00;98.30;;;;;;5038927;28;20384;-48
2023/03/17 07:46:47;;;;;;;3.60;1.52;;;10.00;98.80;;;;;;5035867;28;20681;-47
2023/03/17 07:49:14;;;;;;;4.60;2.00;;;10.00;99.10;;;;;;5046285;28;20115;-48
2023/03/17 07:51:41;;;;;;;3.25;1.52;;;10.00;99.10;;;;;;5039754;28;20033;-47
2023/03/17 07:54:08;;;;;;;2.80;2.00;;;10.10;99.30;;;;;;5042120;28;20045;-48
2023/03/17 07:56:35;;;;;;;1.92;1.70;;;10.10;98.80;;;;;;5041750;28;20079;-49
2023/03/17 07:59:01;;;;;;;4.55;2.22;;;10.10;99.60;;;;;;5042684;28;20403;-48
2023/03/17 08:01:27;;;;;;;3.05;1.30;;;10.10;99.30;;;;;;5050255;28;20394;-48
2023/03/17 08:03:53;;;;;;;3.35;1.63;;;10.20;99.20;;;;;;5051235;28;20410;-48
2023/03/17 08:06:20;;;;;;;3.05;1.58;;;10.20;99.20;;;;;;5048277;28;20115;-48
2023/03/17 08:08:46;;;;;;;3.90;2.10;;;10.30;99.10;;;;;;5049749;28;20045;-48
2023/03/17 08:11:12;;;;;;;6.15;1.83;;;10.40;99.40;;;;;;5049981;28;20049;-47
2023/03/17 08:13:37;;;;;;;2.15;1.48;;;10.40;99.60;;;;;;5050275;28;20029;-48
2023/03/17 08:16:03;;;;;;;5.27;2.20;;;10.50;99.10;;;;;;5050407;28;20072;-48
2023/03/17 08:18:29;;;;;;;6.75;2.15;;;10.60;99.20;;;;;;5050009;28;20037;-47
2023/03/17 08:20:55;;;;;;;3.88;1.92;;;10.70;99.10;;;;;;5039330;28;20036;-48
2023/03/17 08:23:21;;;;;;;7.53;1.70;;;10.80;99.10;;;;;;5030765;28;20041;-47
2023/03/17 08:25:47;;;;;;;3.95;2.55;;;10.90;99.20;;;;;;5030693;28;20044;-48
2023/03/17 08:28:16;;;;;;;4.55;1.35;;;10.90;98.70;;;;;;5028263;28;20041;-48
2023/03/17 08:30:43;;;;;;;3.80;2.28;;;11.00;98.80;;;;;;5030745;28;20050;-48
2023/03/17 08:33:09;;;;;;;3.90;1.80;;;11.00;98.90;;;;;;5030403;28;20045;-48
2023/03/17 08:35:36;;;;;;;3.83;2.20;;;11.00;98.70;;;;;;5031131;28;20034;-48
2023/03/17 08:38:02;;;;;;;3.20;2.67;;;11.10;99.10;;;;;;5029316;28;20396;-49
2023/03/17 08:40:28;;;;;;;2.75;1.85;;;11.10;98.30;;;;;;5030280;28;20081;-48
2023/03/17 08:42:54;;;;;;;3.70;1.60;;;11.10;98.40;;;;;;5029463;28;20073;-46
2023/03/17 08:45:20;;;;;;;6.47;2.08;;;11.20;99.00;;;;;;5031672;28;20042;-48
2023/03/17 08:47:46;;;;;;;3.13;2.00;;;11.20;98.10;;;;;;5033224;28;20203;-48
2023/03/17 08:50:17;;;;;;;;;;;11.20;98.60;;;;;;5042535;28;20089;-49
2023/03/17 08:52:43;;;;;;;2.80;1.80;;;11.20;98.40;;;;;;5038570;28;19921;-48
2023/03/17 08:55:10;;;;;;;3.20;1.65;;;11.30;98.70;;;;;;5044731;28;20036;-48
2023/03/17 08:57:36;;;;;;;5.43;1.60;;;11.30;98.60;;;;;;5036975;28;20033;-48
2023/03/17 09:00:09;;;;;;;1.83;1.25;;;11.40;98.50;;;;;;5040547;28;20048;-49
2023/03/17 09:02:36;;;;;;;7.10;2.28;;;11.40;98.60;;;;;;5045358;28;20040;-48
2023/03/17 09:05:02;;;;;;;3.50;1.92;;;11.50;98.90;;;;;;5045999;28;20123;-48
2023/03/17 09:07:28;;;;;;;3.97;1.75;;;11.60;98.90;;;;;;5046242;28;20040;-49
2023/03/17 09:09:54;;;;;;;11.00;2.47;;;11.60;98.70;;;;;;5046652;28;20041;-48
2023/03/17 09:12:19;;;;;;;5.37;2.07;;;11.70;98.30;;;;;;5044468;28;20355;-48
2023/03/17 09:14:45;;;;;;;11.73;1.53;;;11.70;98.70;;;;;;5044427;28;20039;-49
2023/03/17 09:17:13;;;;;;;2.85;1.73;;;11.80;98.70;;;;;;5045880;28;20110;-49
2023/03/17 09:19:39;;;;;;;5.53;2.55;;;11.80;98.60;;;;;;5047153;28;20037;-48
2023/03/17 09:22:04;;;;;;;7.75;1.92;;;11.80;98.20;;;;;;5043854;28;20047;-48
2023/03/17 09:24:30;;;;;;;4.47;2.08;;;11.90;98.30;;;;;;5047336;28;20107;-48
2023/03/17 09:26:58;;;;;;;6.55;2.20;;;11.90;98.10;;;;;;5042945;28;20048;-48
2023/03/17 09:29:25;;;;;;;4.22;2.22;;;11.90;98.10;;;;;;5045096;28;20072;-48
2023/03/17 09:31:51;;;;;;;4.25;2.13;;;12.00;97.80;;;;;;5045724;28;20041;-47
2023/03/17 09:34:17;;;;;;;3.58;2.13;;;12.00;97.80;;;;;;5044196;28;20045;-48
2023/03/17 09:36:42;;;;;;;;;;;12.20;99.20;;;;;;5047073;28;20115;-47
2023/03/17 09:39:08;;;;;;;3.33;2.05;;;12.30;98.40;;;;;;5042550;28;20003;-48
2023/03/17 09:42:00;;;;;;;6.43;2.55;;;12.40;99.10;;;;;;5045690;28;20482;-48
2023/03/17 09:44:55;;;;;;;5.38;2.28;;;12.60;99.30;;;;;;5027587;28;20361;-49
2023/03/17 09:47:35;;;;;;;3.83;1.80;;;12.80;99.30;;;;;;5038902;28;20591;-48
2023/03/17 09:50:06;;;;;;;5.10;2.20;;;12.90;97.60;;;;;;5043100;28;20037;-47
2023/03/17 09:52:35;;;;;;;3.33;2.15;;;13.00;97.90;;;;;;5044366;28;20041;-48
2023/03/17 09:55:04;;;;;;;7.20;2.63;;;13.00;97.10;;;;;;5044391;28;20101;-48
2023/03/17 09:57:38;;;;;;;2.50;1.85;;;13.10;97.30;;;;;;5044860;28;20041;-49
2023/03/17 10:00:13;;;;;;;10.35;3.97;;;13.10;97.40;;;;;;5044222;28;20033;-48
2023/03/17 10:02:40;;;;;;;4.03;2.63;;;13.20;97.70;;;;;;5043017;28;20440;-48
2023/03/17 10:05:12;;;;;;;4.50;2.45;;;13.30;97.60;;;;;;5047512;28;20029;-48
2023/03/17 10:08:06;;;;;;;4.00;2.30;;;13.30;97.20;;;;;;5048067;28;20336;-48
2023/03/17 10:10:43;;;;;;;6.45;3.50;;;13.40;97.80;;;;;;5044835;28;20045;-48
2023/03/17 10:13:09;;;;;;;;;;;13.50;97.70;;;;;;5047078;28;20371;-49
2023/03/17 10:15:44;;;;;;;4.88;2.55;;;13.70;97.10;;;;;;5050290;28;19954;-49
2023/03/17 10:18:13;;;;;;;4.72;2.72;;;13.80;97.30;;;;;;5046596;28;20032;-48
2023/03/17 10:20:49;;;;;;;5.70;2.72;;;13.90;97.90;;;;;;5048424;28;20047;-47
2023/03/17 10:23:19;;;;;;;4.80;2.85;;;14.00;97.70;;;;;;5044826;28;20094;-47
2023/03/17 10:25:45;;;;;;;3.38;2.40;;;14.10;97.80;;;;;;5048904;28;20123;-48
2023/03/17 10:28:26;;;;;;;;;;;14.20;97.00;;;;;;5044110;28;20037;-49
2023/03/17 10:30:52;;;;;;;7.15;3.10;;;14.20;96.40;;;;;;5049524;28;20277;-48
2023/03/17 10:33:19;;;;;;;6.10;2.75;;;14.30;96.50;;;;;;5050872;28;20045;-49
2023/03/17 10:35:44;;;;;;;5.20;2.35;;;14.30;96.90;;;;;;5051377;28;20398;-48
2023/03/17 10:38:15;;;;;;;5.05;2.92;;;14.40;97.00;;;;;;5048001;28;20098;-48
2023/03/17 10:40:44;;;;;;;8.50;2.88;;;14.50;96.50;;;;;;5045211;28;20098;-46
2023/03/17 10:43:17;;;;;;;6.40;2.63;;;14.50;95.50;;;;;;5050204;28;20107;-51
2023/03/17 10:46:04;;;;;;;3.83;3.03;;;14.60;95.50;;;;;;5047205;28;20295;-49
2023/03/17 10:48:36;;;;;;;4.72;3.05;;;14.60;96.40;;;;;;5050360;28;20041;-49
2023/03/17 10:51:08;;;;;;;4.80;2.85;;;14.70;96.70;;;;;;5049613;28;20052;-48
2023/03/17 10:53:42;;;;;;;7.07;3.30;;;14.70;95.70;;;;;;5050294;28;20041;-49
2023/03/17 10:56:19;;;;;;;8.43;3.67;;;14.70;95.40;;;;;;5050679;28;20033;-49
2023/03/17 10:58:47;;;;;;;4.55;3.15;;;14.70;94.90;;;;;;5049581;28;20086;-49
2023/03/17 11:01:20;;;;;;;6.57;3.47;;;14.80;96.00;;;;;;5048585;28;20041;-48
2023/03/17 11:03:47;;;;;;;6.07;3.00;;;14.90;96.30;;;;;;5049577;28;20041;-49
2023/03/17 11:06:17;;;;;;;4.10;3.25;;;14.90;96.00;;;;;;5044656;28;20083;-49
2023/03/17 11:08:54;;;;;;;7.60;3.10;;;15.00;96.30;;;;;;5046853;28;20052;-48
2023/03/17 11:11:44;;;;;;;4.90;2.83;;;15.10;96.00;;;;;;5046001;28;20449;-50
2023/03/17 11:14:17;;;;;;;6.72;3.70;;;15.20;95.10;;;;;;5045686;28;20444;-48
2023/03/17 11:17:12;;;;;;;8.30;3.20;;;15.30;95.00;;;;;;5043831;28;20494;-48
2023/03/17 11:20:11;;;;;;;5.07;3.40;;;15.20;94.30;;;;;;5047836;28;20531;-49
2023/03/17 11:22:42;;;;;;;6.28;3.22;;;15.20;94.50;;;;;;5046267;28;20114;-49
2023/03/17 11:25:18;;;;;;;7.97;3.67;;;15.20;95.20;;;;;;5047896;28;20040;-49
2023/03/17 11:28:18;;;;;;;6.80;3.00;;;15.20;95.10;;;;;;5048350;28;20045;-49
2023/03/17 11:30:46;;;;;;;7.93;3.78;;;15.20;94.50;;;;;;5044807;28;20053;-48
2023/03/17 11:33:32;;;;;;;6.47;3.42;;;15.30;94.40;;;;;;5049864;28;20076;-49
2023/03/17 11:36:07;;;;;;;6.00;3.40;;;15.20;93.90;;;;;;5048019;28;20125;-48
2023/03/17 11:39:03;;;;;;;8.88;3.30;;;15.20;94.20;;;;;;5047717;28;20029;-48
2023/03/17 11:41:44;;;;;;;5.20;3.47;;;15.20;94.60;;;;;;5046992;28;20281;-49
2023/03/17 11:44:33;;;;;;;8.63;3.47;;;15.20;94.80;;;;;;5047126;28;20119;-49
2023/03/17 11:47:04;;;;;;;4.45;3.28;;;15.20;94.40;;;;;;5048341;28;20120;-48
2023/03/17 11:49:36;;;;;;;7.40;3.53;;;15.30;95.40;;;;;;5045911;28;20471;-49
2023/03/17 11:52:25;;;;;;;6.60;3.10;;;15.30;95.10;;;;;;5047035;28;20060;-49
2023/03/17 11:55:10;;;;;;;6.90;4.70;;;15.30;95.70;;;;;;5044798;28;20041;-48
2023/03/17 11:57:47;;;;;;;5.82;4.00;;;15.40;95.70;;;;;;5048448;28;20037;-49
2023/03/17 12:00:41;;;;;;;6.78;3.38;;;15.30;94.70;;;;;;5050135;28;20037;-49
2023/03/17 12:03:27;;;;;;;10.15;3.58;;;15.30;94.50;;;;;;5048935;28;20044;-49
2023/03/17 12:05:59;;;;;;;3.92;3.45;;;15.30;94.90;;;;;;5048798;28;20090;-49
2023/03/17 12:08:52;;;;;;;6.88;4.05;;;15.20;94.70;;;;;;5044333;28;20482;-47
2023/03/17 12:11:27;;;;;;;11.35;4.40;;;15.20;94.60;;;;;;5034103;28;20042;-49
2023/03/17 12:14:00;;;;;;;9.63;4.55;;;15.20;95.50;;;;;;5035090;28;20045;-48
2023/03/17 12:16:30;;;;;;;10.63;4.10;;;15.20;94.90;;;;;;5034138;28;20037;-49
2023/03/17 12:19:12;;;;;;;7.47;3.92;;;15.20;95.20;;;;;;5037018;28;20039;-48
2023/03/17 12:21:49;;;;;;;6.93;3.55;;;15.20;95.00;;;;;;5035814;28;20053;-50
2023/03/17 12:24:19;;;;;;;8.65;3.67;;;15.20;94.90;;;;;;5038598;28;20064;-49
2023/03/17 12:26:58;;;;;;;7.20;3.85;;;15.20;95.40;;;;;;5031192;28;20083;-49
2023/03/17 12:29:54;;;;;;;6.93;3.28;;;15.20;95.30;;;;;;5030380;28;20106;-49
2023/03/17 12:32:34;;;;;;;6.97;3.25;;;15.10;95.10;;;;;;5031913;28;20053;-49
2023/03/17 12:35:23;;;;;;;9.38;4.10;;;15.10;95.00;;;;;;5030653;28;20087;-48
2023/03/17 12:37:49;;;;;;;8.73;4.15;;;15.00;94.90;;;;;;5030812;28;20097;-49
2023/03/17 12:40:20;;;;;;;9.73;3.55;;;15.00;95.20;;;;;;5044389;28;20052;-48
2023/03/17 12:43:21;;;;;;;5.63;4.18;;;14.90;94.80;;;;;;5034862;28;20076;-48
2023/03/17 12:46:21;;;;;;;6.03;4.00;;;14.90;94.90;;;;;;5049200;28;20040;-49
2023/03/17 12:49:29;;;;;;;4.38;3.35;;;14.90;94.90;;;;;;5038529;28;20061;-49
2023/03/17 12:51:57;;;;;;;5.65;3.78;;;14.90;95.00;;;;;;5022245;28;20060;-49
2023/03/17 12:54:30;;;;;;;11.73;3.72;;;15.00;95.40;;;;;;5043000;28;20053;-49
2023/03/17 12:57:17;;;;;;;8.43;4.20;;;15.10;95.90;;;;;;5050201;28;20037;-50
2023/03/17 12:59:46;;;;;;;8.75;4.00;;;15.20;95.30;;;;;;5047922;28;20409;-50
2023/03/17 13:02:15;;;;;;;5.28;3.60;;;15.30;95.40;;;;;;5049673;28;20041;-49
2023/03/17 13:04:56;;;;;;;5.50;3.50;;;15.40;95.00;;;;;;5032148;28;20054;-49
2023/03/17 13:07:32;;;;;;;6.82;3.85;;;15.50;95.60;;;;;;5030645;28;20490;-49